CKG weather

Chongqing Jiangbei International Airport
Chongqing, Chongqing Municipality, China

Public forecast

Using degrees Celsius for public forecast. Weather courtesy of forecast.io.

METAR (pilot weather report)

Retrieved 2019/06/16 00:00 UTC (2 minutes ago):

ZUCK 160000Z 02003MPS 9999 FEW005 SCT012 OVC033 19/19 Q1006 NOSIG

TAF (pilot weather forecast)

Forecast is more than 12 hours old.

Retrieved 2019/06/15 00:03 UTC (24 hours ago):

TAF ZUCK 151907Z 1600/1624 03003MPS 3500 -RA BR FEW005 SCT012 OVC040 TX22/1608Z TN18/1621Z TEMPO 1600/1604 RA